createdAt,value
2019-01-11T00:00:15.976Z,0.00
2019-01-11T00:01:15.158Z,0.00
2019-01-11T00:02:15.914Z,0.00
2019-01-11T00:03:16.045Z,0.00
2019-01-11T00:04:15.858Z,0.00
2019-01-11T00:05:15.072Z,0.00
2019-01-11T00:06:15.101Z,0.00
2019-01-11T00:07:15.042Z,0.00
2019-01-11T00:08:15.036Z,0.00
2019-01-11T00:09:26.060Z,0.00
2019-01-11T00:10:15.261Z,0.00
2019-01-11T00:11:15.918Z,0.00
2019-01-11T00:12:25.491Z,0.00
2019-01-11T00:13:15.074Z,0.00
2019-01-11T00:14:23.675Z,0.00
2019-01-11T00:15:15.071Z,0.00
2019-01-11T00:16:24.907Z,0.00
2019-01-11T00:17:15.077Z,0.00
2019-01-11T00:18:25.351Z,0.00
2019-01-11T00:19:26.904Z,0.00
2019-01-11T00:21:54.556Z,0.00
2019-01-11T00:23:50.651Z,0.00
2019-01-11T00:25:01.368Z,0.00
2019-01-11T00:25:51.878Z,0.00
2019-01-11T00:26:51.505Z,0.00
2019-01-11T00:28:01.065Z,0.00
2019-01-11T00:28:51.015Z,0.00
2019-01-11T00:29:50.471Z,0.00
2019-01-11T00:30:51.002Z,0.00
2019-01-11T00:32:03.919Z,0.00
2019-01-11T00:32:50.469Z,0.00
2019-01-11T00:33:51.399Z,0.00
2019-01-11T00:34:50.341Z,0.00
2019-01-11T00:35:51.332Z,0.00
2019-01-11T00:36:50.318Z,0.00
2019-01-11T00:38:00.199Z,0.00
2019-01-11T00:39:00.368Z,0.00
2019-01-11T00:39:50.365Z,0.00
2019-01-11T00:40:50.348Z,0.00
2019-01-11T00:41:50.367Z,0.00
2019-01-11T00:42:50.340Z,0.00
2019-01-11T00:46:05.489Z,0.00
2019-01-11T00:47:04.532Z,0.00
2019-01-11T00:48:06.516Z,0.00
2019-01-11T00:49:06.091Z,0.00
2019-01-11T00:50:04.937Z,0.00
2019-01-11T00:51:04.428Z,0.00
2019-01-11T00:52:14.492Z,0.00
2019-01-11T00:53:05.033Z,0.00
2019-01-11T00:54:04.452Z,0.00
2019-01-11T00:55:05.982Z,0.00
2019-01-11T00:56:17.124Z,0.00
2019-01-11T00:57:13.872Z,0.00
2019-01-11T00:58:04.412Z,0.00
2019-01-11T00:59:04.404Z,0.00
2019-01-11T01:00:04.361Z,0.00
2019-01-11T01:01:06.200Z,0.00
2019-01-11T01:02:04.351Z,0.00
2019-01-11T01:03:04.253Z,0.00
2019-01-11T01:04:07.065Z,0.00
2019-01-11T01:05:04.244Z,0.00
2019-01-11T01:06:04.242Z,0.00
2019-01-11T01:07:04.262Z,0.00
2019-01-11T01:08:04.234Z,0.00
2019-01-11T01:09:04.190Z,0.00
2019-01-11T01:10:16.073Z,0.00
2019-01-11T01:11:05.207Z,0.00
2019-01-11T01:12:04.239Z,0.00
2019-01-11T01:13:05.253Z,0.00
2019-01-11T01:14:04.144Z,0.00
2019-01-11T01:15:14.820Z,0.00
2019-01-11T01:16:04.211Z,0.00
2019-01-11T01:17:12.824Z,0.00
2019-01-11T01:18:05.123Z,0.00
2019-01-11T01:19:04.656Z,0.00
2019-01-11T01:20:05.102Z,0.00
2019-01-11T01:21:05.057Z,0.00
2019-01-11T01:22:04.079Z,0.00
2019-01-11T01:23:04.033Z,0.00
2019-01-11T01:24:04.602Z,0.00
2019-01-11T01:25:04.010Z,0.00
2019-01-11T01:26:03.999Z,0.00
2019-01-11T01:27:04.854Z,0.00
2019-01-11T01:28:03.979Z,0.00
2019-01-11T01:29:03.967Z,0.00
2019-01-11T01:30:03.977Z,0.00
2019-01-11T01:31:14.996Z,0.00
2019-01-11T01:33:18.479Z,0.00
2019-01-11T01:34:28.518Z,0.00
2019-01-11T01:36:32.925Z,0.00
2019-01-11T01:37:32.644Z,0.00
2019-01-11T01:38:31.501Z,0.00
2019-01-11T01:39:43.445Z,0.00
2019-01-11T01:40:43.512Z,0.00
2019-01-11T01:41:42.042Z,0.00
2019-01-11T01:42:31.984Z,0.00
2019-01-11T01:43:31.484Z,0.00
2019-01-11T01:44:31.439Z,0.00
2019-01-11T01:45:31.507Z,0.00
2019-01-11T01:46:31.393Z,0.00
2019-01-11T01:47:42.016Z,0.00
2019-01-11T01:48:41.212Z,0.00
2019-01-11T01:49:31.393Z,0.00
2019-01-11T01:50:41.341Z,0.00
2019-01-11T01:53:32.112Z,0.00
2019-01-11T01:55:43.161Z,0.00
2019-01-11T01:56:43.004Z,0.00
2019-01-11T01:57:53.761Z,0.00
2019-01-11T01:58:52.507Z,0.00
2019-01-11T01:59:52.466Z,0.00
2019-01-11T02:00:43.896Z,0.00
2019-01-11T02:01:43.742Z,0.00
2019-01-11T02:02:42.868Z,0.00
2019-01-11T02:03:42.884Z,0.00
2019-01-11T02:04:42.836Z,0.00
2019-01-11T02:05:42.817Z,0.00
2019-01-11T02:06:42.824Z,0.00
2019-01-11T02:07:42.830Z,0.00
2019-01-11T02:08:42.794Z,0.00
2019-01-11T02:09:43.743Z,0.00
2019-01-11T02:10:43.803Z,0.00
2019-01-11T02:11:42.757Z,0.00
2019-01-11T02:12:54.265Z,0.00
2019-01-11T02:13:42.895Z,0.00
2019-01-11T02:14:42.882Z,0.00
2019-01-11T02:15:43.375Z,0.00
2019-01-11T02:16:43.424Z,0.00
2019-01-11T02:17:43.317Z,0.00
2019-01-11T02:18:42.684Z,0.00
2019-01-11T02:19:42.708Z,0.00
2019-01-11T02:20:42.685Z,0.00
2019-01-11T02:21:43.301Z,0.00
2019-01-11T02:22:42.639Z,0.00
2019-01-11T02:23:42.641Z,0.00
2019-01-11T02:24:42.626Z,0.00
2019-01-11T02:25:46.142Z,0.00
2019-01-11T02:26:42.600Z,0.00
2019-01-11T02:27:42.574Z,0.00
2019-01-11T02:28:43.327Z,0.00
2019-01-11T02:29:43.280Z,0.00
2019-01-11T02:30:42.546Z,0.00
2019-01-11T02:31:42.562Z,0.00
2019-01-11T02:32:42.523Z,0.00
2019-01-11T02:33:42.578Z,0.00
2019-01-11T02:34:42.504Z,0.00
2019-01-11T02:35:42.498Z,0.00
2019-01-11T02:36:42.485Z,0.00
2019-01-11T02:37:42.480Z,0.00
2019-01-11T02:38:42.466Z,0.00
2019-01-11T02:39:43.310Z,0.00
2019-01-11T02:40:53.949Z,0.00
2019-01-11T02:41:42.529Z,0.00
2019-01-11T02:42:53.281Z,0.00
2019-01-11T02:43:42.527Z,0.00
2019-01-11T02:44:54.707Z,0.00
2019-01-11T02:45:52.178Z,0.00
2019-01-11T02:46:51.930Z,0.00
2019-01-11T02:47:42.468Z,0.00
2019-01-11T02:48:54.118Z,0.00
2019-01-11T02:49:55.036Z,0.00
2019-01-11T02:50:42.407Z,0.00
2019-01-11T02:51:42.435Z,0.00
2019-01-11T02:52:42.386Z,0.00
2019-01-11T02:53:44.229Z,0.00
2019-01-11T02:54:51.018Z,0.00
2019-01-11T02:55:42.409Z,0.00
2019-01-11T02:56:42.349Z,0.00
2019-01-11T02:57:42.333Z,0.00
2019-01-11T02:58:42.442Z,0.00
2019-01-11T02:59:42.271Z,0.00
2019-01-11T03:00:42.260Z,0.00
2019-01-11T03:01:42.203Z,0.00
2019-01-11T03:02:43.240Z,0.00
2019-01-11T03:03:42.189Z,0.00
2019-01-11T03:04:42.174Z,0.00
2019-01-11T03:05:42.204Z,0.00
2019-01-11T03:07:09.826Z,0.00
2019-01-11T03:07:42.271Z,0.00
2019-01-11T03:08:42.265Z,0.00
2019-01-11T03:09:43.250Z,0.00
2019-01-11T03:10:42.123Z,0.00
2019-01-11T03:11:43.124Z,0.00
2019-01-11T03:12:42.625Z,0.00
2019-01-11T03:13:42.084Z,0.00
2019-01-11T03:14:42.061Z,0.00
2019-01-11T03:15:42.642Z,0.00
2019-01-11T03:16:42.050Z,0.00
2019-01-11T03:17:42.039Z,0.00
2019-01-11T03:18:42.051Z,0.00
2019-01-11T03:19:47.768Z,0.00
2019-01-11T03:20:44.650Z,0.00
2019-01-11T03:21:50.855Z,0.00
2019-01-11T03:25:23.595Z,0.00
2019-01-11T03:26:22.057Z,0.00
2019-01-11T03:27:32.668Z,0.00
2019-01-11T03:28:34.164Z,0.00
2019-01-11T03:29:22.043Z,0.00
2019-01-11T03:30:30.795Z,0.00
2019-01-11T03:31:23.114Z,0.00
2019-01-11T03:32:22.002Z,0.00
2019-01-11T03:33:23.061Z,0.00
2019-01-11T03:34:24.713Z,0.00
2019-01-11T03:35:30.565Z,0.00
2019-01-11T03:36:22.001Z,0.00
2019-01-11T03:37:21.970Z,0.00
2019-01-11T03:38:34.234Z,0.00
2019-01-11T03:39:21.934Z,0.00
2019-01-11T03:40:30.585Z,0.00
2019-01-11T03:41:33.737Z,0.00
2019-01-11T03:42:21.850Z,0.00
2019-01-11T03:43:32.568Z,0.00
2019-01-11T03:44:31.821Z,0.00
2019-01-11T03:45:21.767Z,0.00
2019-01-11T03:46:21.846Z,0.00
2019-01-11T03:47:24.352Z,0.00
2019-01-11T03:48:22.717Z,0.00
2019-01-11T03:49:21.712Z,0.00
2019-01-11T03:50:21.721Z,0.00
2019-01-11T03:51:21.685Z,0.00
2019-01-11T03:52:21.708Z,0.00
2019-01-11T03:53:34.172Z,0.00
2019-01-11T03:55:51.187Z,0.00
2019-01-11T03:58:04.006Z,0.00
2019-01-11T03:59:03.177Z,0.00
2019-01-11T04:00:04.127Z,0.00
2019-01-11T04:01:03.320Z,0.00
2019-01-11T04:02:03.094Z,0.00
2019-01-11T04:03:03.053Z,0.00
2019-01-11T04:04:03.951Z,0.00
2019-01-11T04:05:13.218Z,0.00
2019-01-11T04:06:13.701Z,0.00
2019-01-11T04:07:11.676Z,0.00
2019-01-11T04:08:03.095Z,0.00
2019-01-11T04:09:11.735Z,0.00
2019-01-11T04:10:16.211Z,0.00
2019-01-11T04:11:21.651Z,0.00
2019-01-11T04:12:03.189Z,0.00
2019-01-11T04:13:03.055Z,0.00
2019-01-11T04:14:13.772Z,0.00
2019-01-11T04:15:14.389Z,0.00
2019-01-11T04:16:14.411Z,0.00
2019-01-11T04:18:14.366Z,0.00
2019-01-11T04:19:15.172Z,0.00
2019-01-11T04:20:22.857Z,0.00
2019-01-11T04:23:19.143Z,0.00
2019-01-11T04:26:13.574Z,0.00
2019-01-11T04:27:13.404Z,0.00
2019-01-11T04:28:22.043Z,0.00
2019-01-11T04:29:13.373Z,0.00
2019-01-11T04:30:13.407Z,0.00
2019-01-11T04:31:14.166Z,0.00
2019-01-11T04:32:22.083Z,0.00
2019-01-11T04:33:14.195Z,0.00
2019-01-11T04:34:13.347Z,0.00
2019-01-11T04:35:25.648Z,0.00
2019-01-11T04:36:13.312Z,0.00
2019-01-11T04:38:27.810Z,0.00
2019-01-11T04:39:26.564Z,0.00
2019-01-11T04:40:25.530Z,0.00
2019-01-11T04:41:25.533Z,0.00
2019-01-11T04:42:27.252Z,0.00
2019-01-11T04:43:25.507Z,0.00
2019-01-11T04:44:26.723Z,0.00
2019-01-11T04:45:25.470Z,0.00
2019-01-11T04:46:35.080Z,0.00
2019-01-11T04:47:35.285Z,0.00
2019-01-11T04:48:25.534Z,0.00
2019-01-11T04:49:36.429Z,0.00
2019-01-11T04:51:55.471Z,0.00
2019-01-11T04:52:49.387Z,0.00
2019-01-11T04:54:51.298Z,0.00
2019-01-11T04:56:02.298Z,0.00
2019-01-11T04:56:50.129Z,0.00
2019-01-11T04:57:58.703Z,0.00
2019-01-11T04:58:51.222Z,0.00
2019-01-11T04:59:50.028Z,0.00
2019-01-11T05:00:50.034Z,0.00
2019-01-11T05:01:50.045Z,0.00
2019-01-11T05:02:58.632Z,0.00
2019-01-11T05:03:50.010Z,0.00
2019-01-11T05:04:59.234Z,0.00
2019-01-11T05:05:50.627Z,0.00
2019-01-11T05:06:50.045Z,0.00
2019-01-11T05:07:49.972Z,0.00
2019-01-11T05:08:50.033Z,0.00
2019-01-11T05:09:51.584Z,0.00
2019-01-11T05:10:50.908Z,0.00
2019-01-11T05:12:00.737Z,0.00
2019-01-11T05:12:49.901Z,0.00
2019-01-11T05:13:50.664Z,0.00
2019-01-11T05:14:50.668Z,0.00
2019-01-11T05:16:01.436Z,0.00
2019-01-11T05:16:49.862Z,0.00
2019-01-11T05:17:49.892Z,0.00
2019-01-11T05:18:49.855Z,0.00
2019-01-11T05:19:50.016Z,0.00
2019-01-11T05:20:59.682Z,0.00
2019-01-11T05:21:49.852Z,0.00
2019-01-11T05:22:49.742Z,0.00
2019-01-11T05:23:50.695Z,0.00
2019-01-11T05:24:49.816Z,0.00
2019-01-11T05:25:49.793Z,0.00
2019-01-11T05:26:49.713Z,0.00
2019-01-11T05:27:49.708Z,0.00
2019-01-11T05:28:49.692Z,0.00
2019-01-11T05:31:02.104Z,0.00
2019-01-11T05:32:02.022Z,0.00
2019-01-11T05:33:14.328Z,0.00
2019-01-11T05:34:01.950Z,0.00
2019-01-11T05:35:01.908Z,0.00
2019-01-11T05:36:01.953Z,0.00
2019-01-11T05:37:01.898Z,0.00
2019-01-11T05:38:01.900Z,0.00
2019-01-11T05:39:12.518Z,0.00
2019-01-11T05:40:11.724Z,0.00
2019-01-11T05:41:01.876Z,0.00
2019-01-11T05:42:02.859Z,0.00
2019-01-11T05:43:54.547Z,0.00
2019-01-11T05:45:04.948Z,0.00
2019-01-11T05:46:11.358Z,0.00
2019-01-11T05:46:54.532Z,0.00
2019-01-11T05:47:54.497Z,0.00
2019-01-11T05:49:04.142Z,0.00
2019-01-11T05:49:56.353Z,0.00
2019-01-11T05:51:05.590Z,0.00
2019-01-11T05:52:03.894Z,0.00
2019-01-11T05:53:03.040Z,0.00
2019-01-11T05:53:54.438Z,0.00
2019-01-11T05:54:54.479Z,0.00
2019-01-11T05:56:03.850Z,0.00
2019-01-11T05:56:54.380Z,0.00
2019-01-11T05:57:54.380Z,0.00
2019-01-11T05:58:55.098Z,0.00
2019-01-11T06:00:04.775Z,0.00
2019-01-11T06:00:55.133Z,0.00
2019-01-11T06:02:04.771Z,0.00
2019-01-11T06:02:54.338Z,0.00
2019-01-11T06:03:54.253Z,0.00
2019-01-11T06:04:55.203Z,0.00
2019-01-11T06:06:08.789Z,0.00
2019-01-11T06:07:03.914Z,0.00
2019-01-11T06:08:04.221Z,0.00
2019-01-11T06:09:05.409Z,0.00
2019-01-11T06:09:54.223Z,0.00
2019-01-11T06:11:03.014Z,0.00
2019-01-11T06:11:54.216Z,0.00
2019-01-11T06:13:07.723Z,0.00
2019-01-11T06:13:54.164Z,0.00
2019-01-11T06:14:54.121Z,0.00
2019-01-11T06:15:55.188Z,0.00
2019-01-11T06:17:03.511Z,0.00
2019-01-11T06:17:54.212Z,0.00
2019-01-11T06:18:54.077Z,0.00
2019-01-11T06:20:04.904Z,0.00
2019-01-11T06:20:56.942Z,0.00
2019-01-11T06:22:06.063Z,0.00
2019-01-11T06:22:54.074Z,0.00
2019-01-11T06:23:54.057Z,0.00
2019-01-11T06:24:54.056Z,0.00
2019-01-11T06:25:54.048Z,0.00
2019-01-11T06:27:02.679Z,0.00
2019-01-11T06:29:08.315Z,0.00
2019-01-11T06:30:07.432Z,0.00
2019-01-11T06:31:07.485Z,0.00
2019-01-11T06:32:16.046Z,0.00
2019-01-11T06:33:07.395Z,0.00
2019-01-11T06:34:07.389Z,0.00
2019-01-11T06:35:16.830Z,0.00
2019-01-11T06:36:07.386Z,0.00
2019-01-11T06:37:07.409Z,0.00
2019-01-11T06:38:18.887Z,0.00
2019-01-11T06:40:33.057Z,0.00
2019-01-11T06:41:42.025Z,0.00
2019-01-11T06:42:42.612Z,0.00
2019-01-11T06:43:41.667Z,0.00
2019-01-11T06:44:38.703Z,0.00
2019-01-11T06:45:44.672Z,0.00
2019-01-11T06:47:43.979Z,0.00
2019-01-11T06:48:43.657Z,0.00
2019-01-11T06:49:52.214Z,0.00
2019-01-11T06:50:53.033Z,0.00
2019-01-11T06:51:43.596Z,0.00
2019-01-11T06:53:54.916Z,0.00
2019-01-11T06:56:06.947Z,0.00
2019-01-11T06:58:17.061Z,0.00
2019-01-11T07:00:31.462Z,0.00
2019-01-11T07:02:44.440Z,0.00
2019-01-11T07:06:09.924Z,0.00
2019-01-11T07:07:19.866Z,0.00
2019-01-11T07:08:19.323Z,0.00
2019-01-11T07:09:19.568Z,0.00
2019-01-11T07:10:19.724Z,0.00
2019-01-11T07:12:24.125Z,5.62
2019-01-11T07:13:33.847Z,5.62
2019-01-11T07:14:34.800Z,5.62
2019-01-11T07:15:35.541Z,5.62
2019-01-11T07:16:35.058Z,5.62
2019-01-11T07:17:35.082Z,5.62
2019-01-11T07:18:34.903Z,5.62
2019-01-11T07:19:35.524Z,5.62
2019-01-11T07:20:42.773Z,5.62
2019-01-11T07:21:33.643Z,5.62
2019-01-11T07:22:34.632Z,5.62
2019-01-11T07:23:23.992Z,5.62
2019-01-11T07:25:47.838Z,5.62
2019-01-11T07:26:56.234Z,11.25
2019-01-11T07:27:59.106Z,11.25
2019-01-11T07:28:56.356Z,11.25
2019-01-11T07:29:58.463Z,11.25
2019-01-11T07:31:58.939Z,11.25
2019-01-11T07:33:51.417Z,16.88
2019-01-11T07:34:50.602Z,16.88
2019-01-11T07:35:50.584Z,16.88
2019-01-11T07:37:02.990Z,16.88
2019-01-11T07:38:00.036Z,22.50
2019-01-11T07:39:00.048Z,22.50
2019-01-11T07:41:04.413Z,22.50
2019-01-11T07:43:14.662Z,22.50
2019-01-11T07:44:13.717Z,28.12
2019-01-11T07:45:22.379Z,28.12
2019-01-11T07:46:26.494Z,28.12
2019-01-11T07:47:13.720Z,28.12
2019-01-11T07:48:24.556Z,28.12
2019-01-11T07:49:25.115Z,28.12
2019-01-11T07:50:28.226Z,28.12
2019-01-11T07:51:22.297Z,28.12
2019-01-11T07:52:14.425Z,28.12
2019-01-11T07:53:13.629Z,28.12
2019-01-11T07:54:25.900Z,33.75
2019-01-11T07:55:23.132Z,33.75
2019-01-11T07:57:25.570Z,33.75
2019-01-11T07:58:36.800Z,33.75
2019-01-11T07:59:33.461Z,39.38
2019-01-11T08:01:39.375Z,39.38
2019-01-11T08:04:03.160Z,39.38
2019-01-11T08:06:13.208Z,39.38
2019-01-11T08:07:26.588Z,39.38
2019-01-11T08:08:13.155Z,39.38
2019-01-11T08:10:26.207Z,45.00
2019-01-11T08:11:35.143Z,45.00
2019-01-11T08:13:39.571Z,39.38
2019-01-11T08:14:38.829Z,39.38
2019-01-11T08:15:49.548Z,39.38
2019-01-11T08:16:47.491Z,39.38
2019-01-11T08:17:48.527Z,45.00
2019-01-11T08:21:33.769Z,45.00
2019-01-11T08:23:44.467Z,45.00
2019-01-11T08:24:43.141Z,45.00
2019-01-11T08:26:56.771Z,45.00
2019-01-11T08:28:05.350Z,45.00
2019-01-11T08:28:57.609Z,50.62
2019-01-11T08:30:05.288Z,50.62
2019-01-11T08:30:56.725Z,56.25
2019-01-11T08:32:07.563Z,56.25
2019-01-11T08:32:56.656Z,56.25
2019-01-11T08:34:07.623Z,56.25
2019-01-11T08:34:56.595Z,56.25
2019-01-11T08:36:06.633Z,56.25
2019-01-11T08:37:08.018Z,56.25
2019-01-11T08:37:56.624Z,61.88
2019-01-11T08:39:07.937Z,61.88
2019-01-11T08:41:44.578Z,61.88
2019-01-11T08:42:43.252Z,67.50
2019-01-11T08:43:54.576Z,67.50
2019-01-11T08:44:43.333Z,67.50
2019-01-11T08:45:55.706Z,61.88
2019-01-11T08:46:53.882Z,61.88
2019-01-11T08:47:55.154Z,56.25
2019-01-11T08:48:53.920Z,56.25
2019-01-11T08:49:53.241Z,50.62
2019-01-11T08:50:53.606Z,50.62
2019-01-11T08:51:43.133Z,50.62
2019-01-11T08:52:52.653Z,50.62
2019-01-11T08:53:53.709Z,50.62
2019-01-11T08:54:45.898Z,50.62
2019-01-11T08:55:44.078Z,56.25
2019-01-11T08:56:54.700Z,56.25
2019-01-11T08:57:54.585Z,56.25
2019-01-11T08:58:54.371Z,56.25
2019-01-11T08:59:53.614Z,61.88
2019-01-11T09:00:43.028Z,61.88
2019-01-11T09:03:41.336Z,61.88
2019-01-11T09:04:52.604Z,61.88
2019-01-11T09:05:41.275Z,61.88
2019-01-11T09:06:52.643Z,61.88
2019-01-11T09:07:52.597Z,61.88
2019-01-11T09:08:51.024Z,67.50
2019-01-11T09:11:04.531Z,67.50
2019-01-11T09:13:15.073Z,73.12
2019-01-11T09:14:24.342Z,73.12
2019-01-11T09:16:28.821Z,78.75
2019-01-11T09:18:40.174Z,84.38
2019-01-11T09:19:40.115Z,84.38
2019-01-11T09:20:52.653Z,84.38
2019-01-11T09:21:49.882Z,84.38
2019-01-11T09:22:49.756Z,84.38
2019-01-11T09:23:54.282Z,84.38
2019-01-11T09:24:50.634Z,84.38
2019-01-11T09:25:51.715Z,84.38
2019-01-11T09:26:49.449Z,84.38
2019-01-11T09:27:39.987Z,84.38
2019-01-11T09:28:39.946Z,78.75
2019-01-11T09:29:49.623Z,78.75
2019-01-11T09:32:04.708Z,78.75
2019-01-11T09:33:03.768Z,73.12
2019-01-11T09:34:13.629Z,73.12
2019-01-11T09:35:03.795Z,73.12
2019-01-11T09:36:12.396Z,73.12
2019-01-11T09:37:03.728Z,73.12
2019-01-11T09:38:14.740Z,73.12
2019-01-11T09:39:14.155Z,73.12
2019-01-11T09:40:03.691Z,78.75
2019-01-11T09:41:12.458Z,78.75
2019-01-11T09:42:03.687Z,78.75
2019-01-11T09:43:03.709Z,78.75
2019-01-11T09:44:12.504Z,78.75
2019-01-11T09:45:15.279Z,78.75
2019-01-11T09:46:04.472Z,78.75
2019-01-11T09:47:03.627Z,84.38
2019-01-11T09:48:08.455Z,84.38
2019-01-11T09:49:20.979Z,84.38
2019-01-11T09:50:03.570Z,84.38
2019-01-11T09:51:03.599Z,78.75
2019-01-11T09:52:18.068Z,78.75
2019-01-11T09:53:03.578Z,78.75
2019-01-11T09:54:03.565Z,78.75
2019-01-11T09:55:03.578Z,78.75
2019-01-11T09:56:08.509Z,78.75
2019-01-11T09:57:21.941Z,78.75
2019-01-11T09:58:03.758Z,73.12
2019-01-11T09:59:03.524Z,73.12
2019-01-11T10:00:16.719Z,73.12
2019-01-11T10:01:03.622Z,73.12
2019-01-11T10:02:03.467Z,73.12
2019-01-11T10:03:04.407Z,67.50
2019-01-11T10:04:03.402Z,67.50
2019-01-11T10:05:03.383Z,73.12
2019-01-11T10:06:04.396Z,73.12
2019-01-11T10:07:03.366Z,73.12
2019-01-11T10:08:03.396Z,78.75
2019-01-11T10:09:13.326Z,78.75
2019-01-11T10:10:03.370Z,84.38
2019-01-11T10:11:20.621Z,84.38
2019-01-11T10:12:04.319Z,84.38
2019-01-11T10:13:03.294Z,90.00
2019-01-11T10:14:19.977Z,90.00
2019-01-11T10:15:06.336Z,90.00
2019-01-11T10:16:05.054Z,90.00
2019-01-11T10:17:03.322Z,90.00
2019-01-11T10:18:14.845Z,90.00
2019-01-11T10:19:03.326Z,95.62
2019-01-11T10:20:03.291Z,95.62
2019-01-11T10:22:37.639Z,95.62
2019-01-11T10:23:16.597Z,101.25
2019-01-11T10:24:16.669Z,101.25
2019-01-11T10:25:16.501Z,106.88
2019-01-11T10:26:17.480Z,106.88
2019-01-11T10:27:18.573Z,106.88
2019-01-11T10:28:17.455Z,106.88
2019-01-11T10:29:16.508Z,101.25
2019-01-11T10:30:16.433Z,101.25
2019-01-11T10:31:16.422Z,101.25
2019-01-11T10:32:16.412Z,101.25
2019-01-11T10:33:26.405Z,101.25
2019-01-11T10:34:16.479Z,101.25
2019-01-11T10:35:17.285Z,101.25
2019-01-11T10:36:16.435Z,101.25
2019-01-11T10:37:38.273Z,101.25
2019-01-11T10:38:16.335Z,101.25
2019-01-11T10:39:16.343Z,101.25
2019-01-11T10:40:16.324Z,101.25
2019-01-11T10:41:16.306Z,95.62
2019-01-11T10:42:17.315Z,95.62
2019-01-11T10:43:16.281Z,95.62
2019-01-11T10:44:17.590Z,101.25
2019-01-11T10:45:16.302Z,106.88
2019-01-11T10:46:16.252Z,118.12
2019-01-11T10:47:16.262Z,118.12
2019-01-11T10:48:17.249Z,123.75
2019-01-11T10:49:16.216Z,129.38
2019-01-11T10:50:16.215Z,129.38
2019-01-11T10:51:19.030Z,129.38
2019-01-11T10:52:16.191Z,123.75
2019-01-11T10:53:16.169Z,123.75
2019-01-11T10:54:16.182Z,123.75
2019-01-11T10:55:16.150Z,123.75
2019-01-11T10:56:18.673Z,118.12
2019-01-11T10:57:16.149Z,118.12
2019-01-11T10:58:16.675Z,118.12
2019-01-11T10:59:16.098Z,112.50
2019-01-11T11:00:16.102Z,106.88
2019-01-11T11:01:16.082Z,101.25
2019-01-11T11:02:16.667Z,101.25
2019-01-11T11:03:16.082Z,95.62
2019-01-11T11:04:16.048Z,90.00
2019-01-11T11:05:16.041Z,84.38
2019-01-11T11:06:16.031Z,84.38
2019-01-11T11:08:29.069Z,90.00
2019-01-11T11:09:29.267Z,84.38
2019-01-11T11:10:28.270Z,90.00
2019-01-11T11:11:28.237Z,90.00
2019-01-11T11:12:28.226Z,95.62
2019-01-11T11:13:28.286Z,101.25
2019-01-11T11:14:28.237Z,106.88
2019-01-11T11:15:28.215Z,112.50
2019-01-11T11:16:28.184Z,118.12
2019-01-11T11:17:28.171Z,123.75
2019-01-11T11:18:39.148Z,135.00
2019-01-11T11:19:29.055Z,135.00
2019-01-11T11:20:28.189Z,140.62
2019-01-11T11:21:34.716Z,135.00
2019-01-11T11:22:50.416Z,129.38
2019-01-11T11:23:28.134Z,118.12
2019-01-11T11:24:29.467Z,112.50
2019-01-11T11:25:30.131Z,112.50
2019-01-11T11:26:28.070Z,112.50
2019-01-11T11:27:28.061Z,106.88
2019-01-11T11:28:50.705Z,101.25
2019-01-11T11:29:28.114Z,95.62
2019-01-11T11:30:28.723Z,95.62
2019-01-11T11:31:29.116Z,90.00
2019-01-11T11:33:08.956Z,84.38
2019-01-11T11:33:28.152Z,84.38
2019-01-11T11:34:28.212Z,84.38
2019-01-11T11:35:48.376Z,84.38
2019-01-11T11:36:42.018Z,78.75
2019-01-11T11:37:28.011Z,78.75
2019-01-11T11:38:27.961Z,84.38
2019-01-11T11:39:27.977Z,90.00
2019-01-11T11:40:27.973Z,95.62
2019-01-11T11:41:27.946Z,101.25
2019-01-11T11:42:54.807Z,106.88
2019-01-11T11:43:28.144Z,106.88
2019-01-11T11:44:37.952Z,118.12
2019-01-11T11:45:27.931Z,123.75
2019-01-11T11:46:28.846Z,129.38
2019-01-11T11:47:29.680Z,129.38
2019-01-11T11:48:46.388Z,135.00
2019-01-11T11:49:28.071Z,135.00
2019-01-11T11:50:39.303Z,135.00
2019-01-11T11:51:28.819Z,129.38
2019-01-11T11:52:29.820Z,129.38
2019-01-11T11:53:47.731Z,129.38
2019-01-11T11:54:37.741Z,129.38
2019-01-11T11:55:27.815Z,135.00
2019-01-11T11:56:27.810Z,135.00
2019-01-11T11:58:41.325Z,140.62
2019-01-11T11:59:58.896Z,140.62
2019-01-11T12:01:27.882Z,146.25
2019-01-11T12:01:46.620Z,146.25
2019-01-11T12:02:40.182Z,151.88
2019-01-11T12:03:40.075Z,157.50
2019-01-11T12:04:56.900Z,151.88
2019-01-11T12:05:54.261Z,146.25
2019-01-11T12:07:00.386Z,140.62
2019-01-11T12:07:55.504Z,129.38
2019-01-11T12:08:40.007Z,118.12
2019-01-11T12:09:40.036Z,118.12
2019-01-11T12:10:40.002Z,118.12
2019-01-11T12:11:39.989Z,123.75
2019-01-11T12:12:39.983Z,129.38
2019-01-11T12:13:52.626Z,135.00
2019-01-11T12:14:40.821Z,135.00
2019-01-11T12:15:39.950Z,135.00
2019-01-11T12:16:39.929Z,129.38
2019-01-11T12:17:39.969Z,123.75
2019-01-11T12:18:40.789Z,118.12
2019-01-11T12:19:39.913Z,112.50
2019-01-11T12:20:40.041Z,106.88
2019-01-11T12:21:40.766Z,106.88
2019-01-11T12:22:57.927Z,101.25
2019-01-11T12:23:39.831Z,101.25
2019-01-11T12:24:48.507Z,95.62
2019-01-11T12:25:39.830Z,90.00
2019-01-11T12:26:39.911Z,90.00
2019-01-11T12:27:39.823Z,84.38
2019-01-11T12:31:03.994Z,78.75
2019-01-11T12:32:02.945Z,78.75
2019-01-11T12:33:01.837Z,78.75
2019-01-11T12:34:15.483Z,84.38
2019-01-11T12:35:01.744Z,84.38
2019-01-11T12:36:01.710Z,90.00
2019-01-11T12:37:02.800Z,90.00
2019-01-11T12:38:19.944Z,84.38
2019-01-11T12:39:01.657Z,84.38
2019-01-11T12:40:02.624Z,84.38
2019-01-11T12:41:17.370Z,84.38
2019-01-11T12:42:04.282Z,90.00
2019-01-11T12:43:01.687Z,95.62
2019-01-11T12:44:10.397Z,101.25
2019-01-11T12:45:01.597Z,106.88
2019-01-11T12:46:04.348Z,112.50
2019-01-11T12:47:02.613Z,123.75
2019-01-11T12:48:18.407Z,140.62
2019-01-11T12:49:01.606Z,146.25
2019-01-11T12:50:16.666Z,146.25
2019-01-11T12:51:01.621Z,140.62
2019-01-11T12:54:08.687Z,106.88
2019-01-11T12:56:21.948Z,101.25
2019-01-11T12:58:14.939Z,101.25
2019-01-11T12:59:12.852Z,95.62
2019-01-11T13:00:12.818Z,84.38
2019-01-11T13:01:12.779Z,78.75
2019-01-11T13:02:12.796Z,73.12
2019-01-11T13:03:15.800Z,73.12
2019-01-11T13:04:12.773Z,67.50
2019-01-11T13:05:12.761Z,67.50
2019-01-11T13:06:15.629Z,67.50
2019-01-11T13:07:13.575Z,67.50
2019-01-11T13:08:12.796Z,67.50
2019-01-11T13:09:13.685Z,73.12
2019-01-11T13:10:13.621Z,84.38
2019-01-11T13:11:12.658Z,95.62
2019-01-11T13:12:12.731Z,101.25
2019-01-11T13:13:13.662Z,106.88
2019-01-11T13:14:12.793Z,118.12
2019-01-11T13:15:13.579Z,123.75
2019-01-11T13:16:12.612Z,123.75
2019-01-11T13:17:12.651Z,112.50
2019-01-11T13:18:12.560Z,106.88
2019-01-11T13:19:12.536Z,101.25
2019-01-11T13:20:12.542Z,95.62
2019-01-11T13:21:12.527Z,90.00
2019-01-11T13:22:12.535Z,78.75
2019-01-11T13:23:12.502Z,73.12
2019-01-11T13:24:12.486Z,67.50
2019-01-11T13:25:12.499Z,73.12
2019-01-11T13:26:12.461Z,73.12
2019-01-11T13:27:12.453Z,73.12
2019-01-11T13:28:12.451Z,73.12
2019-01-11T13:29:24.460Z,73.12
2019-01-11T13:30:12.523Z,73.12
2019-01-11T13:31:12.462Z,73.12
2019-01-11T13:32:12.524Z,67.50
2019-01-11T13:33:12.429Z,67.50
2019-01-11T13:34:12.378Z,67.50
2019-01-11T13:35:12.366Z,67.50
2019-01-11T13:36:12.377Z,67.50
2019-01-11T13:37:12.343Z,67.50
2019-01-11T13:38:12.331Z,67.50
2019-01-11T13:39:12.367Z,67.50
2019-01-11T13:40:12.305Z,61.88
2019-01-11T13:41:12.301Z,61.88
2019-01-11T13:42:13.084Z,56.25
2019-01-11T13:43:12.273Z,56.25
2019-01-11T13:44:12.316Z,56.25
2019-01-11T13:45:12.258Z,56.25
2019-01-11T13:46:12.254Z,50.62
2019-01-11T13:47:12.231Z,45.00
2019-01-11T13:48:12.225Z,39.38
2019-01-11T13:49:12.204Z,39.38
2019-01-11T13:50:12.324Z,39.38
2019-01-11T13:51:13.093Z,39.38
2019-01-11T13:52:12.182Z,39.38
2019-01-11T13:53:12.164Z,39.38
2019-01-11T13:54:12.154Z,45.00
2019-01-11T13:55:12.152Z,45.00
2019-01-11T13:56:13.112Z,45.00
2019-01-11T13:57:12.122Z,45.00
2019-01-11T13:58:13.109Z,45.00
2019-01-11T13:59:12.096Z,45.00
2019-01-11T14:00:12.095Z,45.00
2019-01-11T14:01:13.105Z,45.00
2019-01-11T14:02:12.064Z,45.00
2019-01-11T14:03:12.054Z,39.38
2019-01-11T14:04:12.044Z,39.38
2019-01-11T14:05:12.051Z,33.75
2019-01-11T14:06:12.023Z,33.75
2019-01-11T14:07:12.053Z,33.75
2019-01-11T14:08:11.997Z,39.38
2019-01-11T14:09:11.991Z,39.38
2019-01-11T14:10:11.975Z,39.38
2019-01-11T14:11:11.968Z,39.38
2019-01-11T14:12:11.959Z,39.38
2019-01-11T14:13:11.970Z,39.38
2019-01-11T14:14:11.926Z,39.38
2019-01-11T14:15:11.913Z,45.00
2019-01-11T14:16:11.910Z,45.00
2019-01-11T14:17:11.904Z,45.00
2019-01-11T14:18:11.922Z,45.00
2019-01-11T14:19:11.878Z,45.00
2019-01-11T14:20:11.872Z,39.38
2019-01-11T14:21:11.856Z,39.38